Time;durP1;ratioP1;P1;durP2;ratioP2;P2;SDS_P1;SDS_P2;PMS_P1;PMS_P2;Temp;Humidity;BMP_temperature;BMP_pressure;BME280_temperature;BME280_humidity;BME280_pressure;Samples;Min_cycle;Max_cycle;Signal;HPM_P1;HPM_P2
2021/12/05 00:20:19;;;;;;;;;;;;;;;-142.21;100.00;66915.31;5036456;28;876;-89
2021/12/05 00:22:46;;;;;;;;;;;;;;;-142.21;100.00;66915.31;5035212;28;1402;-89
2021/12/05 00:25:13;;;;;;;;;;;;;;;-142.21;100.00;66915.31;5017064;28;1443;-90
2021/12/05 00:27:49;;;;;;;;;;;;;;;-142.21;100.00;66915.31;5035921;28;951;-90
2021/12/05 00:33:24;;;;;;;;;;;;;;;-142.21;100.00;66915.31;5035785;28;1354;-89
2021/12/05 01:21:23;;;;;;;;;;;;;;;-142.21;100.00;66915.31;4823652;29;1073;-90
2021/12/05 01:30:37;;;;;;;;;;;;;;;-142.21;100.00;66915.31;4751824;30;1892;-90
2021/12/05 01:47:40;;;;;;;;;;;;;;;-142.21;100.00;66915.31;4935830;29;666;-91
2021/12/05 01:50:41;;;;;;;;;;;;;;;-142.21;100.00;66915.31;4918508;29;1982;-90
2021/12/05 02:11:45;;;;;;;;;;;;;;;-142.21;100.00;66915.31;4973431;28;661;-90
2021/12/05 02:31:08;;;;;;;;;;;;;;;-142.21;100.00;66915.31;5034066;28;1984;-90
2021/12/05 02:41:24;;;;;;;;;;;;;;;-142.21;100.00;66915.31;5034298;28;805;-91
2021/12/05 02:44:01;;;;;;;;;;;;;;;-142.21;100.00;66915.31;5016188;28;1357;-90
2021/12/05 02:46:26;;;;;;;;;;;;;;;-142.21;100.00;66915.31;5016331;28;1439;-89
2021/12/05 02:48:53;;;;;;;;;;;;;;;-142.21;100.00;66915.31;5017762;28;1894;-91
2021/12/05 02:51:20;;;;;;;;;;;;;;;-142.21;100.00;66915.31;5019862;28;1496;-90
2021/12/05 02:53:51;;;;;;;;;;;;;;;-142.21;100.00;66915.31;5019702;28;1342;-90
2021/12/05 02:56:17;;;;;;;;;;;;;;;-142.21;100.00;66915.31;5019950;28;1366;-90
2021/12/05 03:01:17;;;;;;;;;;;;;;;-142.21;100.00;66915.31;5037611;28;1536;-89
2021/12/05 03:03:42;;;;;;;;;;;;;;;-142.21;100.00;66915.31;5019545;28;1236;-91
2021/12/05 03:06:16;;;;;;;;;;;;;;;-142.21;100.00;66915.31;5028743;28;1289;-90
2021/12/05 03:08:41;;;;;;;;;;;;;;;-142.21;100.00;66915.31;5019241;28;1898;-90
2021/12/05 03:11:07;;;;;;;;;;;;;;;-142.21;100.00;66915.31;5019588;28;1219;-91
2021/12/05 03:13:34;;;;;;;;;;;;;;;-142.21;100.00;66915.31;5019270;28;1602;-90
2021/12/05 03:15:59;;;;;;;;;;;;;;;-142.21;100.00;66915.31;5019515;28;1197;-90
2021/12/05 03:18:24;;;;;;;;;;;;;;;-142.21;100.00;66915.31;5019253;28;1294;-91
2021/12/05 03:20:49;;;;;;;;;;;;;;;-142.21;100.00;66915.31;5019385;28;1265;-90
2021/12/05 03:23:15;;;;;;;;;;;;;;;-142.21;100.00;66915.31;5037020;28;1479;-90
2021/12/05 03:25:40;;;;;;;;;;;;;;;-142.21;100.00;66915.31;5019434;28;1197;-90
2021/12/05 03:28:06;;;;;;;;;;;;;;;-142.21;100.00;66915.31;5019682;28;1305;-91
2021/12/05 03:30:32;;;;;;;;;;;;;;;-142.21;100.00;66915.31;5019464;28;1897;-90
2021/12/05 03:32:57;;;;;;;;;;;;;;;-142.21;100.00;66915.31;5019214;28;1219;-90
2021/12/05 03:35:28;;;;;;;;;;;;;;;-142.21;100.00;66915.31;5020179;28;1284;-89
2021/12/05 03:37:54;;;;;;;;;;;;;;;-142.21;100.00;66915.31;5020522;28;1335;-90
2021/12/05 03:40:21;;;;;;;;;;;;;;;-142.21;100.00;66915.31;5019647;28;1175;-89
2021/12/05 03:42:46;;;;;;;;;;;;;;;-142.21;100.00;66915.31;5019382;28;1483;-90
2021/12/05 03:45:14;;;;;;;;;;;;;;;-142.21;100.00;66915.31;5015894;28;1193;-91
2021/12/05 03:47:39;;;;;;;;;;;;;;;-142.21;100.00;66915.31;5015544;28;1238;-90
2021/12/05 03:50:09;;;;;;;;;;;;;;;-142.21;100.00;66915.31;5015492;28;1890;-90
2021/12/05 03:52:38;;;;;;;;;;;;;;;-142.21;100.00;66915.31;5019096;28;1527;-90
2021/12/05 03:55:06;;;;;;;;;;;;;;;-142.21;100.00;66915.31;5019392;28;1332;-90
2021/12/05 03:57:32;;;;;;;;;;;;;;;-142.21;100.00;66915.31;5018915;28;1256;-91
2021/12/05 03:59:57;;;;;;;;;;;;;;;-142.21;100.00;66915.31;5018084;28;1546;-90
2021/12/05 04:02:22;;;;;;;;;;;;;;;-142.21;100.00;66915.31;5018979;28;1213;-90
2021/12/05 04:04:49;;;;;;;;;;;;;;;-142.21;100.00;66915.31;5018761;28;1261;-90
2021/12/05 04:07:15;;;;;;;;;;;;;;;-142.21;100.00;66915.31;5019160;28;1297;-91
2021/12/05 04:09:41;;;;;;;;;;;;;;;-142.21;100.00;66915.31;5002236;28;1894;-90
2021/12/05 04:12:07;;;;;;;;;;;;;;;-142.21;100.00;66915.31;5018803;28;1364;-91
2021/12/05 04:14:35;;;;;;;;;;;;;;;-142.21;100.00;66915.31;5018950;28;1229;-90
2021/12/05 04:17:02;;;;;;;;;;;;;;;-142.21;100.00;66915.31;5018449;28;1217;-90
2021/12/05 04:19:27;;;;;;;;;;;;;;;-142.21;100.00;66915.31;5036002;28;995;-90
2021/12/05 04:21:53;;;;;;;;;;;;;;;-142.21;100.00;66915.31;5017997;28;1217;-91
2021/12/05 04:24:21;;;;;;;;;;;;;;;-142.21;100.00;66915.31;5001789;28;2041;-89
2021/12/05 04:26:46;;;;;;;;;;;;;;;-142.21;100.00;66915.31;5018128;28;1244;-90
2021/12/05 04:29:12;;;;;;;;;;;;;;;-142.21;100.00;66915.31;5018158;28;1886;-89
2021/12/05 04:31:39;;;;;;;;;;;;;;;-142.21;100.00;66915.31;5018534;28;1234;-89
2021/12/05 04:34:05;;;;;;;;;;;;;;;-142.21;100.00;66915.31;5018577;28;1302;-89
2021/12/05 04:36:30;;;;;;;;;;;;;;;-142.21;100.00;66915.31;5018312;28;1359;-89
2021/12/05 04:38:56;;;;;;;;;;;;;;;-142.21;100.00;66915.31;5018194;28;1311;-89
2021/12/05 04:44:30;;;;;;;;;;;;;;;-142.21;100.00;66915.31;5036043;28;715;-89
2021/12/05 04:47:09;;;;;;;;;;;;;;;-142.21;100.00;66915.31;5018133;28;1205;-89
2021/12/05 04:49:54;;;;;;;;;;;;;;;;;;;;;
2021/12/05 04:52:20;;;;;;;;;;;;;;;-142.21;100.00;66915.31;5035471;28;1305;-89
2021/12/05 04:55:04;;;;;;;;;;;;;;;-142.21;100.00;66915.31;5018521;28;1217;-89
2021/12/05 04:57:36;;;;;;;;;;;;;;;-142.21;100.00;66915.31;5017549;28;1472;-90
2021/12/05 05:00:14;;;;;;;;;;;;;;;-142.21;100.00;66915.31;5017387;28;1360;-89
2021/12/05 05:03:22;;;;;;;;;;;;;;;-142.21;100.00;66915.31;5017948;28;1351;-90
2021/12/05 05:05:56;;;;;;;;;;;;;;;-142.21;100.00;66915.31;5016959;28;1262;-90
2021/12/05 05:08:39;;;;;;;;;;;;;;;-142.21;100.00;66915.31;5014873;28;1576;-90
2021/12/05 08:15:20;;;;;;;;;;;;;;;-142.21;100.00;66915.31;5057813;28;1363;-86
2021/12/05 08:17:53;;;;;;;;;;;;;;;-142.21;100.00;66915.31;5058058;28;1395;-86
2021/12/05 08:20:23;;;;;;;;;;;;;;;-142.21;100.00;66915.31;5057966;28;1360;-86
2021/12/05 08:22:49;;;;;;;;;;;;;;;-142.21;100.00;66915.31;5057604;28;1380;-86
2021/12/05 08:25:14;;;;;;;;;;;;;;;-142.21;100.00;66915.31;5058696;28;1173;-86
2021/12/05 08:27:48;;;;;;;;;;;;;;;-142.21;100.00;66915.31;5058863;28;1533;-86
2021/12/05 08:30:22;;;;;;;;;;;;;;;-142.21;100.00;66915.31;5058066;28;1918;-86
2021/12/05 08:36:14;;;;;;;;;;;;;;;-142.21;100.00;66915.31;5053850;28;1356;-87
2021/12/05 08:41:29;;;;;;;;;;;;;;;-142.21;100.00;66915.31;5060313;28;896;-86
2021/12/05 09:08:22;;;;;;;;;;;;;;;-142.21;100.00;66915.31;5058495;28;1524;-86
2021/12/05 09:20:25;;;;;;;;;;;;;;;-142.21;100.00;66915.31;5059682;28;1402;-86
2021/12/05 09:22:46;;;;;;;;;;;;;;;-142.21;100.00;66915.31;5061578;28;1279;-87
2021/12/05 09:25:22;;;;;;;;;;;;;;;-142.21;100.00;66915.31;5061840;28;1027;-87
2021/12/05 09:28:42;;;;;;;;;;;;;;;-142.21;100.00;66915.31;5059447;28;1434;-86
2021/12/05 09:30:59;;;;;;;;;;;;;;;-142.21;100.00;66915.31;5057166;28;1947;-86
2021/12/05 09:39:46;;;;;;;;;;;;;;;-142.21;100.00;66915.31;5070519;28;1066;-86
2021/12/05 10:08:52;;;;;;;;;;;;;;;-142.21;100.00;66915.31;5038177;28;695;-85
2021/12/05 10:11:35;;;;;;;;;;;;;;;-142.21;100.00;66915.31;5036755;28;1945;-84
2021/12/05 10:17:35;;;;;;;;;;;;;;;-142.21;100.00;66915.31;4977861;28;1663;-84
2021/12/05 10:36:09;;;;;;;;;;;;;;;-142.21;100.00;66915.31;5059756;28;1462;-85
2021/12/05 10:38:44;;;;;;;;;;;;;;;-142.21;100.00;66915.31;5036384;28;1288;-85
2021/12/05 10:43:40;;;;;;;;;;;;;;;-142.21;100.00;66915.31;5038421;28;1345;-85
2021/12/05 10:46:07;;;;;;;;;;;;;;;-142.21;100.00;66915.31;5038581;28;1557;-85
2021/12/05 10:48:37;;;;;;;;;;;;;;;-142.21;100.00;66915.31;5056213;28;1227;-85
2021/12/05 10:51:05;;;;;;;;;;;;;;;-142.21;100.00;66915.31;5058284;28;1894;-85
2021/12/05 10:53:32;;;;;;;;;;;;;;;-142.21;100.00;66915.31;5056728;28;1196;-85
2021/12/05 10:55:59;;;;;;;;;;;;;;;-142.21;100.00;66915.31;5057950;28;889;-85
2021/12/05 10:58:31;;;;;;;;;;;;;;;-142.21;100.00;66915.31;5056220;28;1503;-85
2021/12/05 11:01:04;;;;;;;;;;;;;;;-142.21;100.00;66915.31;5058428;28;1039;-85
2021/12/05 11:03:29;;;;;;;;;;;;;;;-142.21;100.00;66915.31;5056541;28;1200;-84
2021/12/05 11:05:54;;;;;;;;;;;;;;;-142.21;100.00;66915.31;5056641;28;998;-85
2021/12/05 11:08:31;;;;;;;;;;;;;;;-142.21;100.00;66915.31;5056694;28;706;-85
2021/12/05 11:11:13;;;;;;;;;;;;;;;-142.21;100.00;66915.31;5062475;28;1921;-85
2021/12/05 11:13:39;;;;;;;;;;;;;;;-142.21;100.00;66915.31;5060873;28;1135;-85
2021/12/05 11:16:24;;;;;;;;;;;;;;;-142.21;100.00;66915.31;5064862;28;1481;-85
2021/12/05 11:18:49;;;;;;;;;;;;;;;-142.21;100.00;66915.31;5058841;28;1450;-85
2021/12/05 11:21:33;;;;;;;;;;;;;;;-142.21;100.00;66915.31;5065015;28;1000;-85
2021/12/05 11:24:07;;;;;;;;;;;;;;;-142.21;100.00;66915.31;5059744;28;1382;-84
2021/12/05 11:26:33;;;;;;;;;;;;;;;-142.21;100.00;66915.31;5059721;28;1286;-85
2021/12/05 11:28:58;;;;;;;;;;;;;;;-142.21;100.00;66915.31;5059882;28;1331;-85
2021/12/05 11:31:26;;;;;;;;;;;;;;;-142.21;100.00;66915.31;5059849;28;1933;-84
2021/12/05 11:33:54;;;;;;;;;;;;;;;-142.21;100.00;66915.31;5060460;28;1326;-85
2021/12/05 11:36:27;;;;;;;;;;;;;;;-142.21;100.00;66915.31;5061200;28;1156;-85
2021/12/05 11:38:52;;;;;;;;;;;;;;;-142.21;100.00;66915.31;5061058;28;859;-85
2021/12/05 11:41:21;;;;;;;;;;;;;;;-142.21;100.00;66915.31;5061884;28;983;-85
2021/12/05 11:43:52;;;;;;;;;;;;;;;-142.21;100.00;66915.31;5060805;28;1313;-85
2021/12/05 11:46:17;;;;;;;;;;;;;;;-142.21;100.00;66915.31;5059708;28;1399;-85
2021/12/05 11:48:42;;;;;;;;;;;;;;;-142.21;100.00;66915.31;5061259;28;825;-85
2021/12/05 11:51:27;;;;;;;;;;;;;;;-142.21;100.00;66915.31;5061292;28;1914;-86
2021/12/05 11:53:56;;;;;;;;;;;;;;;-142.21;100.00;66915.31;5059619;28;1345;-85
2021/12/05 11:56:41;;;;;;;;;;;;;;;-142.21;100.00;66915.31;5060099;28;1496;-85
2021/12/05 11:59:12;;;;;;;;;;;;;;;-142.21;100.00;66915.31;5060612;28;1100;-85
2021/12/05 12:01:49;;;;;;;;;;;;;;;-142.21;100.00;66915.31;5061154;28;810;-85
2021/12/05 12:04:16;;;;;;;;;;;;;;;-142.21;100.00;66915.31;5059943;28;1247;-85
2021/12/05 12:06:42;;;;;;;;;;;;;;;-142.21;100.00;66915.31;5061313;28;1473;-85
2021/12/05 12:09:08;;;;;;;;;;;;;;;-142.21;100.00;66915.31;5060975;28;1874;-86
2021/12/05 12:11:34;;;;;;;;;;;;;;;-142.21;100.00;66915.31;5059743;28;1329;-85
2021/12/05 12:13:59;;;;;;;;;;;;;;;-142.21;100.00;66915.31;5058779;28;1283;-85
2021/12/05 12:16:24;;;;;;;;;;;;;;;-142.21;100.00;66915.31;5060325;28;1525;-85
2021/12/05 12:18:50;;;;;;;;;;;;;;;-142.21;100.00;66915.31;5058731;28;885;-85
2021/12/05 12:21:21;;;;;;;;;;;;;;;-142.21;100.00;66915.31;5059375;28;1310;-85
2021/12/05 12:23:52;;;;;;;;;;;;;;;-142.21;100.00;66915.31;5060701;28;1207;-85
2021/12/05 12:26:17;;;;;;;;;;;;;;;-142.21;100.00;66915.31;5059034;28;1478;-85
2021/12/05 12:28:43;;;;;;;;;;;;;;;-142.21;100.00;66915.31;5060265;28;877;-85
2021/12/05 12:31:11;;;;;;;;;;;;;;;-142.21;100.00;66915.31;5060468;28;1961;-85
2021/12/05 12:33:51;;;;;;;;;;;;;;;-142.21;100.00;66915.31;5059154;28;1215;-85
2021/12/05 12:36:29;;;;;;;;;;;;;;;-142.21;100.00;66915.31;5060721;28;857;-85
2021/12/05 12:38:54;;;;;;;;;;;;;;;-142.21;100.00;66915.31;5060764;28;1450;-85
2021/12/05 12:41:21;;;;;;;;;;;;;;;-142.21;100.00;66915.31;5059502;28;1043;-85
2021/12/05 12:43:46;;;;;;;;;;;;;;;-142.21;100.00;66915.31;5060689;28;1252;-84
2021/12/05 12:46:17;;;;;;;;;;;;;;;-142.21;100.00;66915.31;5060439;28;790;-85
2021/12/05 12:48:42;;;;;;;;;;;;;;;-142.21;100.00;66915.31;5059264;28;1494;-85
2021/12/05 12:51:07;;;;;;;;;;;;;;;-142.21;100.00;66915.31;5058541;28;1910;-85
2021/12/05 12:53:39;;;;;;;;;;;;;;;-142.21;100.00;66915.31;5060493;28;1236;-85
2021/12/05 12:56:10;;;;;;;;;;;;;;;-142.21;100.00;66915.31;5059365;28;1211;-85
2021/12/05 12:58:42;;;;;;;;;;;;;;;-142.21;100.00;66915.31;5059614;28;1505;-85
2021/12/05 13:01:30;;;;;;;;;;;;;;;-142.21;100.00;66915.31;5059928;28;1468;-85
2021/12/05 13:12:50;;;;;;;;;;;;;;;-142.21;100.00;66915.31;5061700;28;1246;-85
2021/12/05 13:15:20;;;;;;;;;;;;;;;-142.21;100.00;66915.31;5050515;28;1585;-85
2021/12/05 13:17:50;;;;;;;;;;;;;;;-142.21;100.00;66915.31;5060125;28;1102;-85
2021/12/05 13:20:18;;;;;;;;;;;;;;;-142.21;100.00;66915.31;5058637;28;1408;-85
2021/12/05 13:23:00;;;;;;;;;;;;;;;-142.21;100.00;66915.31;5059109;28;1221;-85
2021/12/05 13:25:25;;;;;;;;;;;;;;;-142.21;100.00;66915.31;5059193;28;1708;-85
2021/12/05 13:27:50;;;;;;;;;;;;;;;-142.21;100.00;66915.31;5057952;28;1498;-85
2021/12/05 13:30:32;;;;;;;;;;;;;;;-142.21;100.00;66915.31;5058710;28;1918;-85
2021/12/05 13:33:14;;;;;;;;;;;;;;;-142.21;100.00;66915.31;5057294;28;1329;-85
2021/12/05 13:35:40;;;;;;;;;;;;;;;-142.21;100.00;66915.31;5057887;28;1482;-85
2021/12/05 13:38:06;;;;;;;;;;;;;;;-142.21;100.00;66915.31;5058607;28;1247;-85
2021/12/05 13:40:32;;;;;;;;;;;;;;;-142.21;100.00;66915.31;5057642;28;1187;-85
2021/12/05 13:43:05;;;;;;;;;;;;;;;-142.21;100.00;66915.31;5058713;28;1211;-85
2021/12/05 13:45:33;;;;;;;;;;;;;;;-142.21;100.00;66915.31;5059755;28;1458;-85
2021/12/05 13:48:00;;;;;;;;;;;;;;;-142.21;100.00;66915.31;5058397;28;1350;-85
2021/12/05 13:50:29;;;;;;;;;;;;;;;-142.21;100.00;66915.31;5059227;28;1898;-85
2021/12/05 13:52:55;;;;;;;;;;;;;;;-142.21;100.00;66915.31;5057969;28;1420;-85
2021/12/05 13:55:41;;;;;;;;;;;;;;;-142.21;100.00;66915.31;5057440;28;1352;-85
2021/12/05 13:58:25;;;;;;;;;;;;;;;-142.21;100.00;66915.31;5058654;28;840;-85
2021/12/05 14:00:53;;;;;;;;;;;;;;;-142.21;100.00;66915.31;5059430;28;984;-85
2021/12/05 14:03:37;;;;;;;;;;;;;;;-142.21;100.00;66915.31;5057670;28;1388;-85
2021/12/05 14:06:02;;;;;;;;;;;;;;;-142.21;100.00;66915.31;5058937;28;1462;-85
2021/12/05 14:08:28;;;;;;;;;;;;;;;-142.21;100.00;66915.31;5058948;28;1076;-85
2021/12/05 14:10:53;;;;;;;;;;;;;;;-142.21;100.00;66915.31;5057504;28;1898;-85
2021/12/05 14:13:22;;;;;;;;;;;;;;;-142.21;100.00;66915.31;5057406;28;1267;-85
2021/12/05 14:15:55;;;;;;;;;;;;;;;-142.21;100.00;66915.31;5057666;28;1479;-85
2021/12/05 14:18:20;;;;;;;;;;;;;;;-142.21;100.00;66915.31;5058593;28;1082;-85
2021/12/05 14:20:46;;;;;;;;;;;;;;;-142.21;100.00;66915.31;5058886;28;806;-85
2021/12/05 14:23:19;;;;;;;;;;;;;;;-142.21;100.00;66915.31;5058874;28;1290;-85
2021/12/05 14:25:44;;;;;;;;;;;;;;;-142.21;100.00;66915.31;5057281;28;1511;-85
2021/12/05 14:28:10;;;;;;;;;;;;;;;-142.21;100.00;66915.31;5056755;28;1447;-85
2021/12/05 14:30:35;;;;;;;;;;;;;;;-142.21;100.00;66915.31;5056844;28;1893;-85
2021/12/05 14:33:02;;;;;;;;;;;;;;;-142.21;100.00;66915.31;5057767;28;1296;-85
2021/12/05 14:35:29;;;;;;;;;;;;;;;-142.21;100.00;66915.31;5057282;28;1211;-85
2021/12/05 14:37:55;;;;;;;;;;;;;;;-142.21;100.00;66915.31;5059018;28;1418;-85
2021/12/05 14:40:21;;;;;;;;;;;;;;;-142.21;100.00;66915.31;5056683;28;1404;-85
2021/12/05 14:42:48;;;;;;;;;;;;;;;-142.21;100.00;66915.31;5056854;28;1275;-85
2021/12/05 14:45:32;;;;;;;;;;;;;;;-142.21;100.00;66915.31;5059637;28;1254;-85
2021/12/05 14:48:02;;;;;;;;;;;;;;;-142.21;100.00;66915.31;5060700;28;1483;-85
2021/12/05 14:50:30;;;;;;;;;;;;;;;-142.21;100.00;66915.31;5061509;28;1870;-85
2021/12/05 14:52:55;;;;;;;;;;;;;;;-142.21;100.00;66915.31;5060167;28;1594;-85
2021/12/05 14:55:23;;;;;;;;;;;;;;;-142.21;100.00;66915.31;5061981;28;789;-85
2021/12/05 14:57:53;;;;;;;;;;;;;;;-142.21;100.00;66915.31;5061516;28;1481;-85
2021/12/05 15:00:24;;;;;;;;;;;;;;;-142.21;100.00;66915.31;5060022;28;1216;-85
2021/12/05 15:02:57;;;;;;;;;;;;;;;-142.21;100.00;66915.31;5059795;28;1541;-85
2021/12/05 15:05:23;;;;;;;;;;;;;;;-142.21;100.00;66915.31;5061446;28;1041;-85
2021/12/05 15:07:48;;;;;;;;;;;;;;;-142.21;100.00;66915.31;5059413;28;1550;-85
2021/12/05 15:10:18;;;;;;;;;;;;;;;-142.21;100.00;66915.31;5061597;28;1894;-85
2021/12/05 15:12:43;;;;;;;;;;;;;;;-142.21;100.00;66915.31;5060330;28;1316;-85
2021/12/05 15:15:10;;;;;;;;;;;;;;;-142.21;100.00;66915.31;5059896;28;917;-85
2021/12/05 15:17:37;;;;;;;;;;;;;;;-142.21;100.00;66915.31;5062031;28;1478;-85
2021/12/05 15:20:05;;;;;;;;;;;;;;;-142.21;100.00;66915.31;5059495;28;1687;-85
2021/12/05 15:22:30;;;;;;;;;;;;;;;-142.21;100.00;66915.31;5060875;28;1364;-85
2021/12/05 15:24:57;;;;;;;;;;;;;;;-142.21;100.00;66915.31;5061518;28;800;-85
2021/12/05 15:27:24;;;;;;;;;;;;;;;-142.21;100.00;66915.31;5061631;28;1438;-85
2021/12/05 15:29:54;;;;;;;;;;;;;;;-142.21;100.00;66915.31;5060388;28;1870;-85
2021/12/05 15:32:24;;;;;;;;;;;;;;;-142.21;100.00;66915.31;5059945;28;1267;-85
2021/12/05 15:34:51;;;;;;;;;;;;;;;-142.21;100.00;66915.31;5060787;28;1073;-85
2021/12/05 15:37:16;;;;;;;;;;;;;;;-142.21;100.00;66915.31;5061336;28;1493;-85
2021/12/05 15:39:43;;;;;;;;;;;;;;;-142.21;100.00;66915.31;5060759;28;1172;-85
2021/12/05 15:42:13;;;;;;;;;;;;;;;-142.21;100.00;66915.31;5059305;28;1203;-85
2021/12/05 15:44:39;;;;;;;;;;;;;;;-142.21;100.00;66915.31;5059458;28;1114;-85
2021/12/05 15:47:19;;;;;;;;;;;;;;;-142.21;100.00;66915.31;5060519;28;1490;-85
2021/12/05 15:49:47;;;;;;;;;;;;;;;-142.21;100.00;66915.31;5058802;28;1870;-85
2021/12/05 15:52:12;;;;;;;;;;;;;;;-142.21;100.00;66915.31;5058987;28;1214;-85
2021/12/05 15:54:38;;;;;;;;;;;;;;;-142.21;100.00;66915.31;5058708;28;1330;-85
2021/12/05 15:57:08;;;;;;;;;;;;;;;-142.21;100.00;66915.31;5060619;28;1462;-85
2021/12/05 15:59:38;;;;;;;;;;;;;;;-142.21;100.00;66915.31;5059239;28;1368;-85
2021/12/05 16:02:07;;;;;;;;;;;;;;;-142.21;100.00;66915.31;5058509;28;1335;-85
2021/12/05 16:04:32;;;;;;;;;;;;;;;-142.21;100.00;66915.31;5058826;28;1290;-85
2021/12/05 16:06:59;;;;;;;;;;;;;;;-142.21;100.00;66915.31;5060158;28;1410;-85
2021/12/05 16:09:26;;;;;;;;;;;;;;;-142.21;100.00;66915.31;5058730;28;1957;-85
2021/12/05 16:12:04;;;;;;;;;;;;;;;-142.21;100.00;66915.31;5058166;28;1321;-83
2021/12/05 16:14:30;;;;;;;;;;;;;;;-142.21;100.00;66915.31;5058461;28;1388;-84
2021/12/05 16:16:55;;;;;;;;;;;;;;;-142.21;100.00;66915.31;5058466;28;1490;-85
2021/12/05 16:19:20;;;;;;;;;;;;;;;-142.21;100.00;66915.31;5058689;28;1017;-85
2021/12/05 16:21:45;;;;;;;;;;;;;;;-142.21;100.00;66915.31;5058725;28;1227;-85
2021/12/05 16:24:10;;;;;;;;;;;;;;;-142.21;100.00;66915.31;5058262;28;1388;-85
2021/12/05 16:26:36;;;;;;;;;;;;;;;-142.21;100.00;66915.31;5060859;28;1522;-87
2021/12/05 16:29:12;;;;;;;;;;;;;;;-142.21;100.00;66915.31;5059079;28;1575;-86
2021/12/05 16:31:40;;;;;;;;;;;;;;;-142.21;100.00;66915.31;5060035;28;1176;-86
2021/12/05 16:34:07;;;;;;;;;;;;;;;-142.21;100.00;66915.31;5069692;23;2079;-83
2021/12/05 16:36:33;;;;;;;;;;;;;;;-142.21;100.00;66915.31;5021130;28;1281;-82
2021/12/05 16:39:05;;;;;;;;;;;;;;;-142.21;100.00;66915.31;5038185;28;1358;-84
2021/12/05 16:41:30;;;;;;;;;;;;;;;-142.21;100.00;66915.31;5021012;28;1204;-84
2021/12/05 16:43:58;;;;;;;;;;;;;;;-142.21;100.00;66915.31;5038028;28;1456;-84
2021/12/05 16:46:37;;;;;;;;;;;;;;;-142.21;100.00;66915.31;5037769;28;1417;-86
2021/12/05 16:49:05;;;;;;;;;;;;;;;-142.21;100.00;66915.31;5019917;28;1200;-85
2021/12/05 16:51:35;;;;;;;;;;;;;;;-142.21;100.00;66915.31;5020013;28;1911;-83
2021/12/05 16:54:04;;;;;;;;;;;;;;;-142.21;100.00;66915.31;5020385;28;1452;-86
2021/12/05 16:56:34;;;;;;;;;;;;;;;-142.21;100.00;66915.31;5038547;28;1389;-85
2021/12/05 16:59:04;;;;;;;;;;;;;;;-142.21;100.00;66915.31;5020305;28;1464;-85
2021/12/05 17:01:29;;;;;;;;;;;;;;;-142.21;100.00;66915.31;5037879;28;1313;-86
2021/12/05 17:03:55;;;;;;;;;;;;;;;-142.21;100.00;66915.31;5021096;28;1303;-84
2021/12/05 17:06:20;;;;;;;;;;;;;;;-142.21;100.00;66915.31;5019770;28;1307;-85
2021/12/05 17:08:47;;;;;;;;;;;;;;;-142.21;100.00;66915.31;5019826;28;1495;-85
2021/12/05 17:11:16;;;;;;;;;;;;;;;-142.21;100.00;66915.31;5037930;28;1959;-85
2021/12/05 17:13:43;;;;;;;;;;;;;;;-142.21;100.00;66915.31;5020640;28;1231;-85
2021/12/05 17:16:10;;;;;;;;;;;;;;;-142.21;100.00;66915.31;5038989;28;1317;-84
2021/12/05 17:18:37;;;;;;;;;;;;;;;-142.21;100.00;66915.31;5019972;28;1207;-85
2021/12/05 17:21:07;;;;;;;;;;;;;;;-142.21;100.00;66915.31;5019988;28;1574;-85
2021/12/05 17:23:38;;;;;;;;;;;;;;;-142.21;100.00;66915.31;5020059;28;1232;-86
2021/12/05 17:26:29;;;;;;;;;;;;;;;-142.21;100.00;66915.31;5015985;28;1229;-85
2021/12/05 17:29:00;;;;;;;;;;;;;;;-142.21;100.00;66915.31;5013944;28;1260;-85
2021/12/05 17:31:38;;;;;;;;;;;;;;;-142.21;100.00;66915.31;5013264;28;1965;-86
2021/12/05 17:34:05;;;;;;;;;;;;;;;-142.21;100.00;66915.31;5016401;28;1325;-85
2021/12/05 17:36:38;;;;;;;;;;;;;;;-142.21;100.00;66915.31;5016056;28;1215;-85
2021/12/05 17:39:20;;;;;;;;;;;;;;;-142.21;100.00;66915.31;5015885;28;1518;-85
2021/12/05 17:41:47;;;;;;;;;;;;;;;-142.21;100.00;66915.31;5018963;28;1200;-84
2021/12/05 17:44:15;;;;;;;;;;;;;;;-142.21;100.00;66915.31;5018857;28;1292;-85
2021/12/05 17:46:41;;;;;;;;;;;;;;;-142.21;100.00;66915.31;5015436;28;1448;-86
2021/12/05 17:49:08;;;;;;;;;;;;;;;-142.21;100.00;66915.31;5016950;28;1074;-85
2021/12/05 17:51:37;;;;;;;;;;;;;;;-142.21;100.00;66915.31;5018969;28;1975;-85
2021/12/05 17:54:03;;;;;;;;;;;;;;;-142.21;100.00;66915.31;5018075;28;1343;-85
2021/12/05 17:56:40;;;;;;;;;;;;;;;-142.21;100.00;66915.31;5018003;28;1530;-83
2021/12/05 17:59:24;;;;;;;;;;;;;;;-142.21;100.00;66915.31;5018208;28;1491;-84
2021/12/05 18:04:33;;;;;;;;;;;;;;;-142.21;100.00;66915.31;5036248;28;1463;-85
2021/12/05 18:06:58;;;;;;;;;;;;;;;-142.21;100.00;66915.31;5017576;28;1323;-84
2021/12/05 18:09:24;;;;;;;;;;;;;;;-142.21;100.00;66915.31;5017881;28;1890;-86
2021/12/05 18:11:50;;;;;;;;;;;;;;;-142.21;100.00;66915.31;5017695;28;1353;-85
2021/12/05 18:14:15;;;;;;;;;;;;;;;-142.21;100.00;66915.31;5017436;28;1217;-85
2021/12/05 18:16:40;;;;;;;;;;;;;;;-142.21;100.00;66915.31;5015124;28;1273;-84
2021/12/05 18:19:07;;;;;;;;;;;;;;;-142.21;100.00;66915.31;5016828;28;1329;-86
2021/12/05 18:21:36;;;;;;;;;;;;;;;-142.21;100.00;66915.31;5017240;28;1192;-85
2021/12/05 18:24:02;;;;;;;;;;;;;;;-142.21;100.00;66915.31;5035612;28;1142;-84
2021/12/05 18:26:27;;;;;;;;;;;;;;;-142.21;100.00;66915.31;5017039;28;1330;-86
2021/12/05 18:28:52;;;;;;;;;;;;;;;-142.21;100.00;66915.31;5034850;28;1051;-85
2021/12/05 18:31:20;;;;;;;;;;;;;;;-142.21;100.00;66915.31;5032839;28;1960;-85
2021/12/05 18:33:49;;;;;;;;;;;;;;;-142.21;100.00;66915.31;5012123;28;1496;-81
2021/12/05 18:36:15;;;;;;;;;;;;;;;-142.21;100.00;66915.31;5012437;28;1313;-85
2021/12/05 18:38:40;;;;;;;;;;;;;;;-142.21;100.00;66915.31;5017385;28;1292;-85
2021/12/05 18:41:11;;;;;;;;;;;;;;;-142.21;100.00;66915.31;5035243;28;1404;-86
2021/12/05 18:43:40;;;;;;;;;;;;;;;-142.21;100.00;66915.31;5035795;28;1495;-85
2021/12/05 18:46:07;;;;;;;;;;;;;;;-142.21;100.00;66915.31;5035587;28;1267;-85
2021/12/05 18:48:32;;;;;;;;;;;;;;;-142.21;100.00;66915.31;5034981;28;821;-86
2021/12/05 18:50:58;;;;;;;;;;;;;;;-142.21;100.00;66915.31;5017970;28;1961;-86
2021/12/05 18:53:24;;;;;;;;;;;;;;;-142.21;100.00;66915.31;5018113;28;1495;-84
2021/12/05 18:55:49;;;;;;;;;;;;;;;-142.21;100.00;66915.31;5035442;28;1205;-85
2021/12/05 18:58:15;;;;;;;;;;;;;;;-142.21;100.00;66915.31;5035431;28;1014;-86
2021/12/05 19:06:18;;;;;;;;;;;;;;;-142.21;100.00;66915.31;5035784;28;1420;-85
2021/12/05 19:11:53;;;;;;;;;;;;;;;-142.21;100.00;66915.31;5034981;28;1961;-86
2021/12/05 19:14:21;;;;;;;;;;;;;;;-142.21;100.00;66915.31;4997675;28;1271;-84
2021/12/05 19:16:47;;;;;;;;;;;;;;;-142.21;100.00;66915.31;5017209;28;1463;-85
2021/12/05 19:19:13;;;;;;;;;;;;;;;-142.21;100.00;66915.31;5017677;28;1444;-85
2021/12/05 19:21:38;;;;;;;;;;;;;;;-142.21;100.00;66915.31;5017296;28;1315;-86
2021/12/05 19:24:04;;;;;;;;;;;;;;;-142.21;100.00;66915.31;5034657;28;1459;-84
2021/12/05 19:26:30;;;;;;;;;;;;;;;-142.21;100.00;66915.31;5015909;28;1401;-85
2021/12/05 19:28:55;;;;;;;;;;;;;;;-142.21;100.00;66915.31;5033957;28;1503;-86
2021/12/05 19:31:21;;;;;;;;;;;;;;;-142.21;100.00;66915.31;5017083;28;1879;-83
2021/12/05 19:33:46;;;;;;;;;;;;;;;-142.21;100.00;66915.31;5020568;28;1380;-83
2021/12/05 19:36:15;;;;;;;;;;;;;;;-142.21;100.00;66915.31;5039167;28;988;-85
2021/12/05 19:38:41;;;;;;;;;;;;;;;-142.21;100.00;66915.31;5020225;28;1465;-85
2021/12/05 19:41:07;;;;;;;;;;;;;;;-142.21;100.00;66915.31;5038506;28;1467;-85
2021/12/05 19:43:33;;;;;;;;;;;;;;;-142.21;100.00;66915.31;5037095;28;1210;-85
2021/12/05 19:46:00;;;;;;;;;;;;;;;-142.21;100.00;66915.31;5037870;28;1315;-85
2021/12/05 19:48:25;;;;;;;;;;;;;;;-142.21;100.00;66915.31;5038208;28;1463;-84
2021/12/05 19:50:51;;;;;;;;;;;;;;;-142.21;100.00;66915.31;5037654;28;1878;-85
2021/12/05 19:53:17;;;;;;;;;;;;;;;-142.21;100.00;66915.31;5020008;28;1480;-83
2021/12/05 19:55:43;;;;;;;;;;;;;;;-142.21;100.00;66915.31;5020699;28;1335;-85